5C1

Boerne Stage Field Airport

San Antonio, Texas, USA
METAR K5C1 242255Z AUTO 21003KT 10SM SCT045 SCT055 27/18 A2990 RMK AO1
Observed Flight Rules
Sep-24 @ 22:55 UTC (32 minutes ago) Visual Flight Rules
Wind Visibility Clouds
210° at 3 knots 10 miles
  • Scattered at 4,500' AGL
  • Scattered at 5,500' AGL
Temperatures Readings
Current 27°C / 81°F
Dewpoint 18°C / 64°F
Humidity 58%
Altimeter 29.9" Hg
Pressure 1013 hPa
Elevation 423
METAR K5C1 242255Z AUTO 21003KT 10SM SCT045 SCT055 27/18 A2990 RMK AO1
Observed Flight Rules
Sep-24 @ 22:55 UTC
(32 minutes ago)
VFR
Wind Visibility
210° at 3 knots 10 miles
Clouds
  • Scattered at 4,500' AGL
  • Scattered at 5,500' AGL
Temperature Dewpoint
27°C / 81°F 18°C / 64°F
Humidity Altimeter Pressure
58% 29.9" Hg 1013 hPa